METAR Data
IDs: Format: Raw Decoded Include TAF

Data at: 1539 UTC 04 Aug 2021

Region: TOP
KATL 041452Z 12007KT 10SM FEW018 SCT032 24/18 A3007 RMK AO2 SLP172 T02390178 50007

KBOS 041454Z 10004KT 10SM FEW050 FEW140 OVC230 23/16 A3017 RMK AO2 SLP217 T02330156 51014

KBWI 041454Z 03007KT 10SM SCT210 OVC240 23/13 A3012 RMK AO2 SLP196 T02330133 51007

KCLE 041451Z 35007KT 10SM CLR 25/09 A3012 RMK AO2 SLP210 T02500094 50001

KCLT 041452Z 02009G18KT 10SM BKN020 OVC050 23/17 A3008 RMK AO2 SLP178 T02280172 51011

KCVG 041452Z 04010KT 10SM FEW070 FEW200 25/12 A3011 RMK AO2 SLP187 T02500117 51006

KDCA 041452Z 03010KT 10SM SCT200 BKN250 23/17 A3012 RMK AO2 SLP198 T02330167 51007

KDEN 041453Z 07005KT 9SM FEW050 SCT080 BKN120 19/13 A3028 RMK AO2 SLP182 60000 T01890133 51010

KDFW 041453Z 11008KT 9SM FEW025 BKN100 28/20 A3006 RMK AO2 SLP170 T02780200 51014

KDTW 041453Z 35003KT 10SM FEW035 FEW250 26/15 A3015 RMK AO2 SLP205 T02610150 51004

KEWR 041451Z 01005KT 10SM FEW090 BKN220 OVC250 24/15 A3013 RMK AO2 SLP203 T02440150 53001

KFLL 041453Z 16011KT 10SM FEW028 FEW150 BKN250 31/23 A3006

KIAD 041452Z 04008KT 10SM FEW040 SCT250 23/16 A3012 RMK AO2 SLP198 T02280156 51005

KIAH 041453Z 06009KT 10SM FEW020 BKN070 BKN140 BKN250 28/23 A2999 RMK AO2 SLP155 T02830228 50013

KJFK 041451Z 04006KT 10SM FEW090 BKN200 OVC260 24/15 A3014 RMK AO2 SLP205 T02390150 50000

KLAS 041456Z 20005KT 10SM CLR 34/08 A2998 RMK AO2 SLP117 T03390083 51015

KLAX 041453Z 24003KT 7SM FEW009 19/17 A2991 RMK AO2 SLP128 T01890167 53006 $

KLGA 041451Z 04005KT 10SM FEW100 OVC210 23/15 A3013 RMK AO2 SLP203 T02280150 53003

KMCO 041453Z 23009KT 10SM FEW018 SCT060 SCT110 BKN150 BKN190 BKN250 28/22 A3003 RMK AO2 SLP167 60000 T02780222 53009

KMDW 041453Z 00000KT 10SM CLR 26/13 A3014 RMK SLPNO

KMEM 041454Z 05008KT 10SM CLR 27/16 A3008 RMK AO2 SLP182 T02670161 51008

KMIA 041453Z VRB06KT 10SM SCT028 BKN032 BKN160 BKN250 31/24 A3007 RMK AO2 SLP181 CB DSNT SW-NW MOV E T03110244 53015

KMSP 041453Z 24007KT 10SM FEW250 24/14 A3011 RMK AO2 SLP190 T02440144 50002

KORD 041451Z 00000KT 10SM CLR 26/14 A3013 RMK AO2 SLP200 T02610139 50003

KPDX 041500Z 32004KT 10SM BKN010 18/14 A3001 RMK AO2 T01780139

KPHL 041454Z 05006KT 10SM OVC220 24/15 A3013 RMK AO2 SLP201 T02390150 53002

KPHX 041451Z 11010KT 10SM CLR 34/13 A2982 RMK AO2 SLP075 T03440128 51016

KPIT 041451Z 00000KT 10SM FEW080 FEW250 23/15 A3012 RMK AO2 SLP201 T02280150 51002

KSAN 041451Z 30004KT 8SM OVC007 19/17 A2993 RMK AO2 SLP133 T01940167 51006

KSEA 041453Z 29003KT 10SM CLR 17/14 A3004 RMK AO2 SLP177 T01720139 53000

KSFO 041456Z 25008KT 10SM FEW006 BKN011 14/11 A2999 RMK AO2 SLP155 T01390111 53011 $

KSLC 041454Z 17006KT 10SM SCT065 23/11 A3021 RMK AO2 SLP174 FU SCT065 FU ALQDS T02330106 51013

KSTL 041451Z 05005KT 10SM CLR 25/16 A3015 RMK AO2 SLP200 T02500156 50004

KTPA 041453Z 20012KT 10SM SCT017 BKN035 BKN130 29/24 A3002 RMK AO2 SLP164 T02890244 53005